createdAt,value
2018-06-19T00:00:23.089Z,17.45
2018-06-19T00:01:25.838Z,17.45
2018-06-19T00:02:30.399Z,17.38
2018-06-19T00:03:33.192Z,17.38
2018-06-19T00:04:36.256Z,17.40
2018-06-19T00:05:39.888Z,17.41
2018-06-19T00:06:42.629Z,17.42
2018-06-19T00:07:45.437Z,17.38
2018-06-19T00:08:48.196Z,17.33
2018-06-19T00:09:50.979Z,17.27
2018-06-19T00:10:54.700Z,17.24
2018-06-19T00:11:57.450Z,17.24
2018-06-19T00:13:00.259Z,17.22
2018-06-19T00:14:03.048Z,17.19
2018-06-19T00:15:07.508Z,17.21
2018-06-19T00:16:10.325Z,17.19
2018-06-19T00:17:14.203Z,17.14
2018-06-19T00:18:17.062Z,17.16
2018-06-19T00:19:20.595Z,17.10
2018-06-19T00:20:25.965Z,17.10
2018-06-19T00:21:28.741Z,17.08
2018-06-19T00:22:31.507Z,17.11
2018-06-19T00:23:34.774Z,17.09
2018-06-19T00:24:37.657Z,17.08
2018-06-19T00:25:40.469Z,17.00
2018-06-19T00:26:43.280Z,16.94
2018-06-19T00:27:46.108Z,16.95
2018-06-19T00:28:49.970Z,16.95
2018-06-19T00:29:53.229Z,16.96
2018-06-19T00:30:56.027Z,17.00
2018-06-19T00:31:58.848Z,16.99
2018-06-19T00:33:01.584Z,16.94
2018-06-19T00:34:04.357Z,16.95
2018-06-19T00:35:08.097Z,16.91
2018-06-19T00:36:11.297Z,16.93
2018-06-19T00:37:15.051Z,16.89
2018-06-19T00:38:17.851Z,16.86
2018-06-19T00:39:22.361Z,16.85
2018-06-19T00:40:25.178Z,16.86
2018-06-19T00:41:27.962Z,16.83
2018-06-19T00:42:31.221Z,16.80
2018-06-19T00:43:34.000Z,16.78
2018-06-19T00:44:36.788Z,16.76
2018-06-19T00:45:39.639Z,16.69
2018-06-19T00:46:42.442Z,16.68
2018-06-19T00:47:45.295Z,16.64
2018-06-19T00:48:48.425Z,16.65
2018-06-19T00:49:51.207Z,16.67
2018-06-19T00:50:53.961Z,16.58
2018-06-19T00:51:56.775Z,16.50
2018-06-19T00:52:59.546Z,16.51
2018-06-19T00:54:02.332Z,16.53
2018-06-19T00:55:05.508Z,16.52
2018-06-19T00:56:08.284Z,16.44
2018-06-19T00:57:11.070Z,16.44
2018-06-19T00:58:13.914Z,16.44
2018-06-19T00:59:16.697Z,16.45
2018-06-19T01:00:19.522Z,16.45
2018-06-19T01:01:22.718Z,16.33
2018-06-19T01:02:25.488Z,16.34
2018-06-19T01:03:28.298Z,16.29
2018-06-19T01:04:31.056Z,16.27
2018-06-19T01:05:33.882Z,16.26
2018-06-19T01:06:36.705Z,16.20
2018-06-19T01:07:39.489Z,16.12
2018-06-19T01:08:42.270Z,16.13
2018-06-19T01:09:45.051Z,16.14
2018-06-19T01:10:47.840Z,16.09
2018-06-19T01:11:50.637Z,16.06
2018-06-19T01:12:53.449Z,15.97
2018-06-19T01:13:56.538Z,15.94
2018-06-19T01:14:59.294Z,15.87
2018-06-19T01:16:02.106Z,16.00
2018-06-19T01:17:05.532Z,15.95
2018-06-19T01:18:08.317Z,15.92
2018-06-19T01:19:11.089Z,15.85
2018-06-19T01:20:14.382Z,15.87
2018-06-19T01:21:17.229Z,15.86
2018-06-19T01:22:20.018Z,15.93
2018-06-19T01:23:22.832Z,15.98
2018-06-19T01:24:25.639Z,16.02
2018-06-19T01:25:28.458Z,16.04
2018-06-19T01:26:31.644Z,15.97
2018-06-19T01:27:34.517Z,15.88
2018-06-19T01:28:37.323Z,15.85
2018-06-19T01:29:40.137Z,15.79
2018-06-19T01:30:42.918Z,15.73
2018-06-19T01:31:45.714Z,15.72
2018-06-19T01:32:48.868Z,15.77
2018-06-19T01:33:51.909Z,15.74
2018-06-19T01:35:00.731Z,15.69
2018-06-19T01:36:03.789Z,15.73
2018-06-19T01:37:07.001Z,15.71
2018-06-19T01:38:10.113Z,15.68
2018-06-19T01:39:13.365Z,15.68
2018-06-19T01:40:16.155Z,15.61
2018-06-19T01:41:19.199Z,15.59
2018-06-19T01:42:22.083Z,15.69
2018-06-19T01:43:24.863Z,15.76
2018-06-19T01:44:27.677Z,15.68
2018-06-19T01:45:31.041Z,15.61
2018-06-19T01:46:33.873Z,15.69
2018-06-19T01:47:36.692Z,15.66
2018-06-19T01:48:39.502Z,15.67
2018-06-19T01:49:42.295Z,15.61
2018-06-19T01:50:46.284Z,15.58
2018-06-19T01:51:49.482Z,15.57
2018-06-19T01:52:52.372Z,15.47
2018-06-19T01:53:55.202Z,15.45
2018-06-19T01:54:58.006Z,15.48
2018-06-19T01:56:00.875Z,15.44
2018-06-19T01:57:03.691Z,15.46
2018-06-19T01:58:06.957Z,15.44
2018-06-19T01:59:09.752Z,15.43
2018-06-19T02:00:12.543Z,15.42
2018-06-19T02:01:15.357Z,15.45
2018-06-19T02:02:18.242Z,15.44
2018-06-19T02:03:21.039Z,15.45
2018-06-19T02:04:24.321Z,15.43
2018-06-19T02:05:27.126Z,15.46
2018-06-19T02:06:29.936Z,15.47
2018-06-19T02:07:32.743Z,15.45
2018-06-19T02:08:35.535Z,15.35
2018-06-19T02:09:38.325Z,15.27
2018-06-19T02:10:41.595Z,15.24
2018-06-19T02:11:44.385Z,15.31
2018-06-19T02:12:47.153Z,15.24
2018-06-19T02:13:49.953Z,15.11
2018-06-19T02:14:52.735Z,15.19
2018-06-19T02:15:55.512Z,15.23
2018-06-19T02:16:58.818Z,15.22
2018-06-19T02:18:01.567Z,15.21
2018-06-19T02:19:04.357Z,15.16
2018-06-19T02:20:07.174Z,15.21
2018-06-19T02:21:09.984Z,15.24
2018-06-19T02:22:12.773Z,15.27
2018-06-19T02:23:16.045Z,15.28
2018-06-19T02:24:18.908Z,15.24
2018-06-19T02:25:21.677Z,15.16
2018-06-19T02:26:24.445Z,15.16
2018-06-19T02:27:27.245Z,15.09
2018-06-19T02:28:30.061Z,14.97
2018-06-19T02:29:33.319Z,15.01
2018-06-19T02:30:36.108Z,15.04
2018-06-19T02:31:38.858Z,15.00
2018-06-19T02:32:41.945Z,14.94
2018-06-19T02:33:44.734Z,15.03
2018-06-19T02:34:47.529Z,15.03
2018-06-19T02:35:50.618Z,15.08
2018-06-19T02:36:53.495Z,15.05
2018-06-19T02:37:56.266Z,15.02
2018-06-19T02:38:59.037Z,15.01
2018-06-19T02:40:01.844Z,14.94
2018-06-19T02:41:04.683Z,14.90
2018-06-19T02:42:07.460Z,14.84
2018-06-19T02:43:10.239Z,14.86
2018-06-19T02:44:13.032Z,14.79
2018-06-19T02:45:15.831Z,14.70
2018-06-19T02:46:18.614Z,14.70
2018-06-19T02:47:22.440Z,14.73
2018-06-19T02:48:25.694Z,14.77
2018-06-19T02:49:28.465Z,14.81
2018-06-19T02:50:31.288Z,14.78
2018-06-19T02:51:34.085Z,14.74
2018-06-19T02:52:36.863Z,14.86
2018-06-19T02:53:39.744Z,14.91
2018-06-19T02:54:43.903Z,14.95
2018-06-19T02:55:46.669Z,15.04
2018-06-19T02:56:49.897Z,14.99
2018-06-19T02:57:52.705Z,14.99
2018-06-19T02:58:55.556Z,14.97
2018-06-19T02:59:58.335Z,14.94
2018-06-19T03:01:02.300Z,14.94
2018-06-19T03:02:05.122Z,14.91
2018-06-19T03:03:07.921Z,14.87
2018-06-19T03:04:10.727Z,14.87
2018-06-19T03:05:13.479Z,14.88
2018-06-19T03:06:16.363Z,14.84
2018-06-19T03:07:19.616Z,14.85
2018-06-19T03:08:22.417Z,14.86
2018-06-19T03:09:25.209Z,14.85
2018-06-19T03:10:28.046Z,14.86
2018-06-19T03:11:30.869Z,14.84
2018-06-19T03:12:33.655Z,14.87
2018-06-19T03:13:36.940Z,14.88
2018-06-19T03:14:39.754Z,14.85
2018-06-19T03:15:42.837Z,14.88
2018-06-19T03:16:45.610Z,14.96
2018-06-19T03:17:48.379Z,14.97
2018-06-19T03:18:51.240Z,14.97
2018-06-19T03:19:54.565Z,15.03
2018-06-19T03:20:57.373Z,15.01
2018-06-19T03:22:00.129Z,15.04
2018-06-19T03:23:02.913Z,15.09
2018-06-19T03:24:05.669Z,15.10
2018-06-19T03:25:08.461Z,15.01
2018-06-19T03:26:12.047Z,15.02
2018-06-19T03:27:14.820Z,14.97
2018-06-19T03:28:17.723Z,14.99
2018-06-19T03:29:20.517Z,15.04
2018-06-19T03:30:23.432Z,15.06
2018-06-19T03:31:26.356Z,14.97
2018-06-19T03:32:29.578Z,14.97
2018-06-19T03:33:32.345Z,14.97
2018-06-19T03:34:35.135Z,14.97
2018-06-19T03:35:37.897Z,14.97
2018-06-19T03:36:40.673Z,14.91
2018-06-19T03:37:43.490Z,14.94
2018-06-19T03:38:46.642Z,14.97
2018-06-19T03:39:49.560Z,14.95
2018-06-19T03:40:52.468Z,14.99
2018-06-19T03:41:55.261Z,15.06
2018-06-19T03:43:08.092Z,15.02
2018-06-19T03:44:11.247Z,15.02
2018-06-19T03:45:17.099Z,15.03
2018-06-19T03:46:19.871Z,15.03
2018-06-19T03:47:22.677Z,15.04
2018-06-19T03:48:25.442Z,14.96
2018-06-19T03:49:28.236Z,14.91
2018-06-19T03:50:31.573Z,14.95
2018-06-19T03:51:34.391Z,14.99
2018-06-19T03:52:37.172Z,15.02
2018-06-19T03:53:39.976Z,14.99
2018-06-19T03:54:42.780Z,14.97
2018-06-19T03:55:45.577Z,14.97
2018-06-19T03:56:48.742Z,14.98
2018-06-19T03:57:51.534Z,15.03
2018-06-19T03:58:54.669Z,15.09
2018-06-19T03:59:57.449Z,15.00
2018-06-19T04:01:00.295Z,14.90
2018-06-19T04:02:03.112Z,14.89
2018-06-19T04:03:06.203Z,14.96
2018-06-19T04:04:09.027Z,14.99
2018-06-19T04:05:11.838Z,14.99
2018-06-19T04:06:15.561Z,14.98
2018-06-19T04:07:18.560Z,14.96
2018-06-19T04:08:21.390Z,14.99
2018-06-19T04:09:24.473Z,14.97
2018-06-19T04:10:27.279Z,14.83
2018-06-19T04:11:30.307Z,14.80
2018-06-19T04:12:33.092Z,14.80
2018-06-19T04:13:35.910Z,14.83
2018-06-19T04:14:38.727Z,14.87
2018-06-19T04:15:43.107Z,14.87
2018-06-19T04:16:45.953Z,14.82
2018-06-19T04:17:48.719Z,14.79
2018-06-19T04:18:52.574Z,14.89
2018-06-19T04:19:56.715Z,15.03
2018-06-19T04:20:59.527Z,15.14
2018-06-19T04:22:02.671Z,15.17
2018-06-19T04:23:05.440Z,15.16
2018-06-19T04:24:08.233Z,15.14
2018-06-19T04:25:14.054Z,15.14
2018-06-19T04:26:17.416Z,15.10
2018-06-19T04:27:20.204Z,15.07
2018-06-19T04:28:23.499Z,15.05
2018-06-19T04:29:27.299Z,15.11
2018-06-19T04:30:30.513Z,15.18
2018-06-19T04:31:33.372Z,15.01
2018-06-19T04:32:36.625Z,15.03
2018-06-19T04:33:39.568Z,15.15
2018-06-19T04:34:42.853Z,15.22
2018-06-19T04:35:45.765Z,15.19
2018-06-19T04:36:48.678Z,15.23
2018-06-19T04:37:52.262Z,15.21
2018-06-19T04:38:55.508Z,15.24
2018-06-19T04:39:59.709Z,15.24
2018-06-19T04:41:03.029Z,15.06
2018-06-19T04:42:05.922Z,15.01
2018-06-19T04:43:09.227Z,15.02
2018-06-19T04:44:12.592Z,15.13
2018-06-19T04:45:15.452Z,15.28
2018-06-19T04:46:18.270Z,15.37
2018-06-19T04:47:21.556Z,15.38
2018-06-19T04:48:24.346Z,15.30
2018-06-19T04:49:27.139Z,15.28
2018-06-19T04:50:29.928Z,15.31
2018-06-19T04:51:32.723Z,15.36
2018-06-19T04:52:40.949Z,15.35
2018-06-19T04:53:46.198Z,15.40
2018-06-19T04:54:50.562Z,15.45
2018-06-19T04:55:53.370Z,15.49
2018-06-19T04:56:56.775Z,15.55
2018-06-19T04:57:59.664Z,15.59
2018-06-19T04:59:02.492Z,15.62
2018-06-19T05:00:06.262Z,15.57
2018-06-19T05:01:10.640Z,15.59
2018-06-19T05:02:13.485Z,15.62
2018-06-19T05:03:16.283Z,15.66
2018-06-19T05:04:19.099Z,15.66
2018-06-19T05:05:22.304Z,15.74
2018-06-19T05:06:25.151Z,15.84
2018-06-19T05:07:28.967Z,15.90
2018-06-19T05:08:31.739Z,15.90
2018-06-19T05:09:34.796Z,15.74
2018-06-19T05:10:37.600Z,15.71
2018-06-19T05:11:40.739Z,15.64
2018-06-19T05:12:43.512Z,15.68
2018-06-19T05:13:46.361Z,15.70
2018-06-19T05:14:49.153Z,15.59
2018-06-19T05:15:52.010Z,15.55
2018-06-19T05:16:54.801Z,15.58
2018-06-19T05:17:59.011Z,15.71
2018-06-19T05:19:07.563Z,15.87
2018-06-19T05:20:10.757Z,15.88
2018-06-19T05:21:17.622Z,15.89
2018-06-19T05:22:22.450Z,15.71
2018-06-19T05:23:25.333Z,15.69
2018-06-19T05:24:28.724Z,15.72
2018-06-19T05:25:31.515Z,15.83
2018-06-19T05:26:34.384Z,15.82
2018-06-19T05:27:37.210Z,15.62
2018-06-19T05:28:40.024Z,15.53
2018-06-19T05:29:43.412Z,15.44
2018-06-19T05:30:46.725Z,15.44
2018-06-19T05:31:49.542Z,15.40
2018-06-19T05:32:52.376Z,15.42
2018-06-19T05:33:55.210Z,15.44
2018-06-19T05:34:58.548Z,15.53
2018-06-19T05:36:02.322Z,15.52
2018-06-19T05:37:05.613Z,15.32
2018-06-19T05:38:08.870Z,15.40
2018-06-19T05:39:12.487Z,15.49
2018-06-19T05:40:15.334Z,15.65
2018-06-19T05:41:18.766Z,15.63
2018-06-19T05:42:21.952Z,15.60
2018-06-19T05:43:25.510Z,15.54
2018-06-19T05:44:28.428Z,15.68
2018-06-19T05:45:31.341Z,15.81
2018-06-19T05:46:34.339Z,15.84
2018-06-19T05:47:37.235Z,15.73
2018-06-19T05:48:41.325Z,15.86
2018-06-19T05:49:45.398Z,15.85
2018-06-19T05:50:49.461Z,15.98
2018-06-19T05:51:52.322Z,15.95
2018-06-19T05:52:55.253Z,15.79
2018-06-19T05:53:58.385Z,15.78
2018-06-19T05:55:02.480Z,15.81
2018-06-19T05:56:07.130Z,15.86
2018-06-19T05:57:11.665Z,15.87
2018-06-19T05:58:15.545Z,15.91
2018-06-19T05:59:20.894Z,15.73
2018-06-19T06:00:23.790Z,15.63
2018-06-19T06:01:26.677Z,15.67
2018-06-19T06:02:30.590Z,15.68
2018-06-19T06:03:34.360Z,15.66
2018-06-19T06:04:37.268Z,15.53
2018-06-19T06:05:40.321Z,15.39
2018-06-19T06:06:43.580Z,15.50
2018-06-19T06:07:48.016Z,15.49
2018-06-19T06:08:50.870Z,15.54
2018-06-19T06:09:53.904Z,15.47
2018-06-19T06:10:57.773Z,15.46
2018-06-19T06:12:01.510Z,15.51
2018-06-19T06:13:04.513Z,15.48
2018-06-19T06:14:08.409Z,15.49
2018-06-19T06:15:11.378Z,15.50
2018-06-19T06:16:14.304Z,15.43
2018-06-19T06:17:17.790Z,15.37
2018-06-19T06:18:23.577Z,15.43
2018-06-19T06:19:28.143Z,15.51
2018-06-19T06:20:31.426Z,15.59
2018-06-19T06:21:34.262Z,15.54
2018-06-19T06:22:38.062Z,15.55
2018-06-19T06:23:41.416Z,15.56
2018-06-19T06:24:44.292Z,15.54
2018-06-19T06:25:53.806Z,15.52
2018-06-19T06:26:56.649Z,15.53
2018-06-19T06:28:03.660Z,15.53
2018-06-19T06:29:06.449Z,15.61
2018-06-19T06:30:09.330Z,15.64
2018-06-19T06:31:13.116Z,15.62
2018-06-19T06:32:16.305Z,15.50
2018-06-19T06:33:19.183Z,15.51
2018-06-19T06:34:23.926Z,15.56
2018-06-19T06:35:26.738Z,15.60
2018-06-19T06:36:29.591Z,15.59
2018-06-19T06:37:32.417Z,15.62
2018-06-19T06:39:43.787Z,15.52
2018-06-19T06:40:47.161Z,15.62
2018-06-19T06:41:51.150Z,15.60
2018-06-19T06:42:54.397Z,15.56
2018-06-19T06:43:57.215Z,15.54
2018-06-19T06:45:00.382Z,15.53
2018-06-19T06:46:03.218Z,15.56
2018-06-19T06:47:06.540Z,15.54
2018-06-19T06:48:09.423Z,15.64
2018-06-19T06:49:12.223Z,15.67
2018-06-19T06:50:15.335Z,15.63
2018-06-19T06:51:18.647Z,15.74
2018-06-19T06:52:21.486Z,15.63
2018-06-19T06:53:24.322Z,15.58
2018-06-19T06:54:27.149Z,15.59
2018-06-19T06:55:29.942Z,15.60
2018-06-19T06:56:33.009Z,15.57
2018-06-19T06:57:36.298Z,15.56
2018-06-19T06:58:39.122Z,15.59
2018-06-19T06:59:41.936Z,15.74
2018-06-19T07:00:44.849Z,15.73
2018-06-19T07:01:48.406Z,15.72
2018-06-19T07:02:51.162Z,15.83
2018-06-19T07:03:54.355Z,15.71
2018-06-19T07:04:57.193Z,15.54
2018-06-19T07:06:00.892Z,15.60
2018-06-19T07:07:04.423Z,15.60
2018-06-19T07:08:07.314Z,15.58
2018-06-19T07:09:13.791Z,15.59
2018-06-19T07:10:17.830Z,15.65
2018-06-19T07:11:20.731Z,15.62
2018-06-19T07:12:24.059Z,15.64
2018-06-19T07:13:30.035Z,15.63
2018-06-19T07:14:33.976Z,15.65
2018-06-19T07:15:37.019Z,15.75
2018-06-19T07:16:40.675Z,15.79
2018-06-19T07:17:43.715Z,15.74
2018-06-19T07:18:46.678Z,15.76
2018-06-19T07:19:51.086Z,15.81
2018-06-19T07:20:53.993Z,15.81
2018-06-19T07:21:58.127Z,15.81
2018-06-19T07:23:01.036Z,15.89
2018-06-19T07:24:03.816Z,15.77
2018-06-19T07:25:06.939Z,15.76
2018-06-19T07:26:09.774Z,15.86
2018-06-19T07:27:12.613Z,15.73
2018-06-19T07:28:16.356Z,15.69
2018-06-19T07:29:19.165Z,15.64
2018-06-19T07:30:23.986Z,15.55
2018-06-19T07:31:28.219Z,15.53
2018-06-19T07:32:31.763Z,15.60
2018-06-19T07:33:35.849Z,15.65
2018-06-19T07:34:40.372Z,15.75
2018-06-19T07:35:43.892Z,15.90
2018-06-19T07:36:47.060Z,15.95
2018-06-19T07:37:50.796Z,15.95
2018-06-19T07:38:53.645Z,16.00
2018-06-19T07:39:56.460Z,15.95
2018-06-19T07:41:01.653Z,15.92
2018-06-19T07:42:04.437Z,15.93
2018-06-19T07:43:07.410Z,15.91
2018-06-19T07:44:12.186Z,15.95
2018-06-19T07:45:16.042Z,15.95
2018-06-19T07:46:21.899Z,15.89
2018-06-19T07:47:25.465Z,15.96
2018-06-19T07:48:28.392Z,15.89
2018-06-19T07:49:31.292Z,15.94
2018-06-19T07:50:35.198Z,16.12
2018-06-19T07:51:38.829Z,16.21
2018-06-19T07:52:41.636Z,16.21
2018-06-19T07:53:44.819Z,16.18
2018-06-19T07:54:47.737Z,16.23
2018-06-19T07:55:51.343Z,16.04
2018-06-19T07:56:54.232Z,16.00
2018-06-19T07:58:03.345Z,16.03
2018-06-19T07:59:09.720Z,15.91
2018-06-19T08:00:13.709Z,15.90
2018-06-19T08:01:16.517Z,16.00
2018-06-19T08:02:20.655Z,15.90
2018-06-19T08:03:24.725Z,15.90
2018-06-19T08:04:28.312Z,15.92
2018-06-19T08:05:31.239Z,15.96
2018-06-19T08:06:35.064Z,15.92
2018-06-19T08:07:37.964Z,15.90
2018-06-19T08:08:42.376Z,15.95
2018-06-19T08:09:45.518Z,15.90
2018-06-19T08:10:48.886Z,15.94
2018-06-19T08:11:53.698Z,15.94
2018-06-19T08:12:57.520Z,15.98
2018-06-19T08:14:01.273Z,16.05
2018-06-19T08:15:04.428Z,16.09
2018-06-19T08:16:07.656Z,16.00
2018-06-19T08:17:12.494Z,16.03
2018-06-19T08:18:16.566Z,15.95
2018-06-19T08:19:19.701Z,15.78
2018-06-19T08:20:25.832Z,15.90
2018-06-19T08:21:29.151Z,15.91
2018-06-19T08:22:32.580Z,15.94
2018-06-19T08:23:37.704Z,15.98
2018-06-19T08:24:41.165Z,16.10
2018-06-19T08:25:44.248Z,16.09
2018-06-19T08:26:47.690Z,16.09
2018-06-19T08:27:50.582Z,16.17
2018-06-19T08:28:55.585Z,16.24
2018-06-19T08:29:58.663Z,16.41
2018-06-19T08:31:02.115Z,16.41
2018-06-19T08:32:05.225Z,16.42
2018-06-19T08:33:08.118Z,16.32
2018-06-19T08:34:10.930Z,16.12
2018-06-19T08:35:14.969Z,16.10
2018-06-19T08:36:17.984Z,15.99
2018-06-19T08:37:21.282Z,15.98
2018-06-19T08:38:25.113Z,16.00
2018-06-19T08:39:27.930Z,16.00
2018-06-19T08:40:31.394Z,16.04
2018-06-19T08:41:35.618Z,16.06
2018-06-19T08:42:39.013Z,15.99
2018-06-19T08:43:43.891Z,15.98
2018-06-19T08:44:47.750Z,16.04
2018-06-19T08:45:51.542Z,16.21
2018-06-19T08:46:54.582Z,16.24
2018-06-19T08:47:58.446Z,16.39
2018-06-19T08:49:02.484Z,16.44
2018-06-19T08:50:06.359Z,16.52
2018-06-19T08:51:12.158Z,16.65
2018-06-19T08:52:16.567Z,16.80
2018-06-19T08:53:19.380Z,16.77
2018-06-19T08:54:23.315Z,16.86
2018-06-19T08:55:26.304Z,16.70
2018-06-19T08:56:29.623Z,16.71
2018-06-19T08:57:33.476Z,16.60
2018-06-19T08:58:36.441Z,16.44
2018-06-19T08:59:39.242Z,16.38
2018-06-19T09:00:43.304Z,16.52
2018-06-19T09:01:48.680Z,16.59
2018-06-19T09:02:51.902Z,16.55
2018-06-19T09:03:55.443Z,16.40
2018-06-19T09:04:58.919Z,16.34
2018-06-19T09:06:02.546Z,16.49
2018-06-19T09:07:05.358Z,16.48
2018-06-19T09:08:09.159Z,16.59
2018-06-19T09:09:14.178Z,16.66
2018-06-19T09:10:18.768Z,16.81
2018-06-19T09:11:21.605Z,16.80
2018-06-19T09:12:25.787Z,16.87
2018-06-19T09:13:29.602Z,16.89
2018-06-19T09:14:33.009Z,17.01
2018-06-19T09:15:36.966Z,16.84
2018-06-19T09:16:40.210Z,16.64
2018-06-19T09:17:43.010Z,16.70
2018-06-19T09:18:46.341Z,16.48
2018-06-19T09:19:49.431Z,16.46
2018-06-19T09:20:52.968Z,16.70
2018-06-19T09:21:56.165Z,16.62
2018-06-19T09:22:58.998Z,16.53
2018-06-19T09:24:03.007Z,16.58
2018-06-19T09:25:06.856Z,16.58
2018-06-19T09:26:10.993Z,16.57
2018-06-19T09:27:13.955Z,16.66
2018-06-19T09:28:17.746Z,16.69
2018-06-19T09:29:20.573Z,16.78
2018-06-19T09:30:23.412Z,16.67
2018-06-19T09:31:26.326Z,16.83
2018-06-19T09:32:29.292Z,17.12
2018-06-19T09:33:32.180Z,17.31
2018-06-19T09:34:35.405Z,17.36
2018-06-19T09:35:38.226Z,17.31
2018-06-19T09:36:41.231Z,17.02
2018-06-19T09:37:44.281Z,16.97
2018-06-19T09:38:47.314Z,17.17
2018-06-19T09:39:50.353Z,17.12
2018-06-19T09:40:54.382Z,17.23
2018-06-19T09:41:57.185Z,17.10
2018-06-19T09:43:00.818Z,16.97
2018-06-19T09:44:06.820Z,17.04
2018-06-19T09:45:11.336Z,17.29
2018-06-19T09:46:14.177Z,17.46
2018-06-19T09:47:17.765Z,17.39
2018-06-19T09:48:20.599Z,17.43
2018-06-19T09:49:23.459Z,17.54
2018-06-19T09:50:26.280Z,17.33
2018-06-19T09:51:31.013Z,17.21
2018-06-19T09:52:37.109Z,17.21
2018-06-19T09:53:41.961Z,17.24
2018-06-19T09:54:45.772Z,17.25
2018-06-19T09:55:50.653Z,17.09
2018-06-19T09:56:54.058Z,17.12
2018-06-19T09:57:57.712Z,17.00
2018-06-19T09:59:00.827Z,17.02
2018-06-19T10:00:04.189Z,17.02
2018-06-19T10:01:09.655Z,16.89
2018-06-19T10:02:12.545Z,16.92
2018-06-19T10:03:15.393Z,16.78
2018-06-19T10:04:18.223Z,16.74
2018-06-19T10:05:22.030Z,16.65
2018-06-19T10:06:26.901Z,16.74
2018-06-19T10:07:36.321Z,16.84
2018-06-19T10:08:42.650Z,17.03
2018-06-19T10:09:45.593Z,17.15
2018-06-19T10:10:48.432Z,17.21
2018-06-19T10:11:51.370Z,17.09
2018-06-19T10:12:55.070Z,17.00
2018-06-19T10:13:57.935Z,16.98
2018-06-19T10:15:00.820Z,16.85
2018-06-19T10:16:03.698Z,16.83
2018-06-19T10:18:17.722Z,16.69
2018-06-19T10:19:22.533Z,16.55
2018-06-19T10:20:25.350Z,16.74
2018-06-19T10:21:28.178Z,17.05
2018-06-19T10:22:30.989Z,17.23
2018-06-19T10:23:34.555Z,17.47
2018-06-19T10:24:38.768Z,17.24
2018-06-19T10:25:41.619Z,17.07
2018-06-19T10:26:44.497Z,16.79
2018-06-19T10:27:47.363Z,16.59
2018-06-19T10:28:50.247Z,16.70
2018-06-19T10:29:53.671Z,16.72
2018-06-19T10:30:58.719Z,16.86
2018-06-19T10:32:01.545Z,17.00
2018-06-19T10:33:05.443Z,16.84
2018-06-19T10:34:10.302Z,16.83
2018-06-19T10:35:13.686Z,16.69
2018-06-19T10:36:16.688Z,16.79
2018-06-19T10:37:19.783Z,16.81
2018-06-19T10:38:22.684Z,16.76
2018-06-19T10:39:25.917Z,16.63
2018-06-19T10:40:28.723Z,16.67
2018-06-19T10:41:32.666Z,16.67
2018-06-19T10:42:35.505Z,16.73
2018-06-19T10:43:40.585Z,16.80
2018-06-19T10:44:43.474Z,16.84
2018-06-19T10:45:47.097Z,16.95
2018-06-19T10:46:50.541Z,16.95
2018-06-19T10:47:53.394Z,17.00
2018-06-19T10:48:56.825Z,16.85
2018-06-19T10:50:00.047Z,16.88
2018-06-19T10:51:02.894Z,16.98
2018-06-19T10:52:06.672Z,17.06
2018-06-19T10:53:10.453Z,17.15
2018-06-19T10:54:15.533Z,17.31
2018-06-19T10:55:19.037Z,17.30
2018-06-19T10:56:23.029Z,17.19
2018-06-19T10:57:28.665Z,17.07
2018-06-19T10:58:31.503Z,17.01
2018-06-19T10:59:34.308Z,16.91
2018-06-19T11:00:38.427Z,16.92
2018-06-19T11:01:41.231Z,17.10
2018-06-19T11:02:44.400Z,17.10
2018-06-19T11:03:47.201Z,17.26
2018-06-19T11:04:51.651Z,17.48
2018-06-19T11:05:55.104Z,17.29
2018-06-19T11:06:58.706Z,17.41
2018-06-19T11:08:01.562Z,17.58
2018-06-19T11:09:05.744Z,17.52
2018-06-19T11:10:08.765Z,17.19
2018-06-19T11:11:12.362Z,17.09
2018-06-19T11:12:15.155Z,17.35
2018-06-19T11:13:18.885Z,17.36
2018-06-19T11:14:22.309Z,17.40
2018-06-19T11:15:25.128Z,17.67
2018-06-19T11:16:28.304Z,17.72
2018-06-19T11:17:31.129Z,17.53
2018-06-19T11:18:33.912Z,17.76
2018-06-19T11:19:36.732Z,17.74
2018-06-19T11:20:39.864Z,17.54
2018-06-19T11:21:42.718Z,17.64
2018-06-19T11:22:45.790Z,17.64
2018-06-19T11:23:48.760Z,17.82
2018-06-19T11:24:51.579Z,17.95
2018-06-19T11:25:54.371Z,17.74
2018-06-19T11:26:57.534Z,17.53
2018-06-19T11:28:00.362Z,17.73
2018-06-19T11:29:07.131Z,17.73
2018-06-19T11:30:09.998Z,17.96
2018-06-19T11:31:14.566Z,17.90
2018-06-19T11:32:19.890Z,17.83
2018-06-19T11:33:24.521Z,17.86
2018-06-19T11:34:28.265Z,17.97
2018-06-19T11:35:31.232Z,18.07
2018-06-19T11:36:34.445Z,17.73
2018-06-19T11:37:37.287Z,17.65
2018-06-19T11:38:40.431Z,17.82
2018-06-19T11:39:43.701Z,17.91
2018-06-19T11:40:46.725Z,17.90
2018-06-19T11:41:50.363Z,17.82
2018-06-19T11:42:53.540Z,17.86
2018-06-19T11:43:57.502Z,18.04
2018-06-19T11:45:00.352Z,18.21
2018-06-19T11:46:05.382Z,18.42
2018-06-19T11:47:08.278Z,18.30
2018-06-19T11:48:11.540Z,18.19
2018-06-19T11:49:15.045Z,18.11
2018-06-19T11:50:18.993Z,18.04
2018-06-19T11:51:23.106Z,18.35
2018-06-19T11:52:27.274Z,18.18
2018-06-19T11:53:30.625Z,18.43
2018-06-19T11:54:34.787Z,18.23
2018-06-19T11:55:37.656Z,18.33
2018-06-19T11:56:40.647Z,18.31
2018-06-19T11:57:43.558Z,18.25
2018-06-19T11:58:47.611Z,18.25
2018-06-19T11:59:51.624Z,18.20
2018-06-19T12:00:54.990Z,18.20
2018-06-19T12:01:58.513Z,18.29
2018-06-19T12:03:01.439Z,17.85
2018-06-19T12:04:06.287Z,17.70
2018-06-19T12:05:10.321Z,17.83
2018-06-19T12:06:13.139Z,18.03
2018-06-19T12:07:16.075Z,18.13
2018-06-19T12:08:19.573Z,18.20
2018-06-19T12:09:22.545Z,18.08
2018-06-19T12:10:25.819Z,18.01
2018-06-19T12:11:28.661Z,17.67
2018-06-19T12:12:31.508Z,17.83
2018-06-19T12:13:34.423Z,17.86
2018-06-19T12:14:37.878Z,17.82
2018-06-19T12:15:40.767Z,18.02
2018-06-19T12:16:45.053Z,18.19
2018-06-19T12:17:48.552Z,18.44
2018-06-19T12:18:51.423Z,18.62
2018-06-19T12:19:55.179Z,18.54
2018-06-19T12:20:59.078Z,18.55
2018-06-19T12:22:03.488Z,18.38
2018-06-19T12:23:06.338Z,18.27
2018-06-19T12:24:10.579Z,18.44
2018-06-19T12:25:13.522Z,18.54
2018-06-19T12:26:19.925Z,18.67
2018-06-19T12:27:22.760Z,18.48
2018-06-19T12:28:26.137Z,18.48
2018-06-19T12:29:29.588Z,18.64
2018-06-19T12:30:32.698Z,18.54
2018-06-19T12:31:35.503Z,18.62
2018-06-19T12:32:39.420Z,18.59
2018-06-19T12:33:43.945Z,18.33
2018-06-19T12:34:54.628Z,18.14
2018-06-19T12:35:57.443Z,18.06
2018-06-19T12:37:00.248Z,18.03
2018-06-19T12:38:03.055Z,18.25
2018-06-19T12:39:06.790Z,18.42
2018-06-19T12:40:09.615Z,18.42
2018-06-19T12:41:13.797Z,18.16
2018-06-19T12:42:19.686Z,18.01
2018-06-19T12:43:24.382Z,18.15
2018-06-19T12:44:31.653Z,18.31
2018-06-19T12:45:36.508Z,18.35
2018-06-19T12:46:41.112Z,18.40
2018-06-19T12:47:47.432Z,18.47
2018-06-19T12:48:50.306Z,18.53
2018-06-19T12:49:53.878Z,18.59
2018-06-19T12:51:01.702Z,18.70
2018-06-19T12:52:05.661Z,18.84
2018-06-19T12:53:10.918Z,19.12
2018-06-19T12:54:13.859Z,19.16
2018-06-19T12:55:17.701Z,19.22
2018-06-19T12:56:21.389Z,19.35
2018-06-19T12:57:27.378Z,19.47
2018-06-19T12:58:30.858Z,19.41
2018-06-19T12:59:34.442Z,19.45
2018-06-19T13:00:37.393Z,19.31
2018-06-19T13:01:40.256Z,19.37
2018-06-19T13:02:44.703Z,19.27
2018-06-19T13:03:47.518Z,19.14
2018-06-19T13:04:51.839Z,19.31
2018-06-19T13:05:55.471Z,19.08
2018-06-19T13:07:00.483Z,18.97
2018-06-19T13:08:07.238Z,19.02
2018-06-19T13:09:12.144Z,19.02
2018-06-19T13:10:15.294Z,18.95
2018-06-19T13:11:18.512Z,19.01
2018-06-19T13:12:21.505Z,19.01
2018-06-19T13:13:26.306Z,19.14
2018-06-19T13:14:29.747Z,19.27
2018-06-19T13:15:32.531Z,19.25
2018-06-19T13:16:35.337Z,19.34
2018-06-19T13:17:38.517Z,19.35
2018-06-19T13:18:42.395Z,19.09
2018-06-19T13:19:48.938Z,19.14
2018-06-19T13:20:51.924Z,18.99
2018-06-19T13:21:55.253Z,18.79
2018-06-19T13:22:58.901Z,18.67
2018-06-19T13:24:02.217Z,18.57
2018-06-19T13:25:28.704Z,18.49
2018-06-19T13:26:31.623Z,18.45
2018-06-19T13:27:34.469Z,18.48
2018-06-19T13:28:37.264Z,18.41
2018-06-19T13:29:45.268Z,18.54
2018-06-19T13:30:48.417Z,18.78
2018-06-19T13:31:51.274Z,18.92
2018-06-19T13:32:54.706Z,18.91
2018-06-19T13:33:58.251Z,18.95
2018-06-19T13:35:01.327Z,18.97
2018-06-19T13:36:04.186Z,19.10
2018-06-19T13:37:12.557Z,19.05
2018-06-19T13:38:16.499Z,19.02
2018-06-19T13:39:19.389Z,19.02